sensor_id;sensor_type;location;lat;lon;timestamp;temperature;humidity
31735;DHT22;18313;48.518;9.124;2023-05-28T00:01:35;13.70;99.90
31735;DHT22;18313;48.518;9.124;2023-05-28T00:04:02;13.60;99.90
31735;DHT22;18313;48.518;9.124;2023-05-28T00:06:30;13.40;99.90
31735;DHT22;18313;48.518;9.124;2023-05-28T00:08:57;13.40;99.90
31735;DHT22;18313;48.518;9.124;2023-05-28T00:11:24;13.40;99.90
31735;DHT22;18313;48.518;9.124;2023-05-28T00:13:52;13.30;99.90
31735;DHT22;18313;48.518;9.124;2023-05-28T00:16:20;13.30;99.90
31735;DHT22;18313;48.518;9.124;2023-05-28T00:18:47;13.20;99.90
31735;DHT22;18313;48.518;9.124;2023-05-28T00:21:14;13.10;99.90
31735;DHT22;18313;48.518;9.124;2023-05-28T00:23:41;13.10;99.90
31735;DHT22;18313;48.518;9.124;2023-05-28T00:26:09;13.10;99.90
31735;DHT22;18313;48.518;9.124;2023-05-28T00:28:36;13.00;99.90
31735;DHT22;18313;48.518;9.124;2023-05-28T00:31:03;13.00;99.90
31735;DHT22;18313;48.518;9.124;2023-05-28T00:33:30;12.90;99.90
31735;DHT22;18313;48.518;9.124;2023-05-28T00:35:57;12.90;99.90
31735;DHT22;18313;48.518;9.124;2023-05-28T00:38:25;12.80;99.90
31735;DHT22;18313;48.518;9.124;2023-05-28T00:40:52;12.80;99.90
31735;DHT22;18313;48.518;9.124;2023-05-28T00:43:21;12.80;99.90
31735;DHT22;18313;48.518;9.124;2023-05-28T00:45:50;12.70;99.90
31735;DHT22;18313;48.518;9.124;2023-05-28T00:48:18;12.70;99.90
31735;DHT22;18313;48.518;9.124;2023-05-28T00:50:46;12.70;99.90
31735;DHT22;18313;48.518;9.124;2023-05-28T00:53:14;12.70;99.90
31735;DHT22;18313;48.518;9.124;2023-05-28T00:55:41;12.60;99.90
31735;DHT22;18313;48.518;9.124;2023-05-28T00:58:08;12.60;99.90
31735;DHT22;18313;48.518;9.124;2023-05-28T01:00:38;12.60;99.90
31735;DHT22;18313;48.518;9.124;2023-05-28T01:03:06;12.40;99.90
31735;DHT22;18313;48.518;9.124;2023-05-28T01:05:33;12.40;99.90
31735;DHT22;18313;48.518;9.124;2023-05-28T01:08:02;12.30;99.90
31735;DHT22;18313;48.518;9.124;2023-05-28T01:10:31;12.20;99.90
31735;DHT22;18313;48.518;9.124;2023-05-28T01:12:59;12.20;99.90
31735;DHT22;18313;48.518;9.124;2023-05-28T01:15:27;12.10;99.90
31735;DHT22;18313;48.518;9.124;2023-05-28T01:17:59;12.10;99.90
31735;DHT22;18313;48.518;9.124;2023-05-28T01:20:28;12.00;99.90
31735;DHT22;18313;48.518;9.124;2023-05-28T01:23:02;12.00;99.90
31735;DHT22;18313;48.518;9.124;2023-05-28T01:25:33;12.00;99.90
31735;DHT22;18313;48.518;9.124;2023-05-28T01:28:01;11.90;99.90
31735;DHT22;18313;48.518;9.124;2023-05-28T01:30:31;12.00;99.90
31735;DHT22;18313;48.518;9.124;2023-05-28T01:32:59;11.90;99.90
31735;DHT22;18313;48.518;9.124;2023-05-28T01:35:26;11.80;99.90
31735;DHT22;18313;48.518;9.124;2023-05-28T01:37:54;11.80;99.90
31735;DHT22;18313;48.518;9.124;2023-05-28T01:40:25;11.70;99.90
31735;DHT22;18313;48.518;9.124;2023-05-28T01:42:54;11.70;99.90
31735;DHT22;18313;48.518;9.124;2023-05-28T01:45:24;11.70;99.90
31735;DHT22;18313;48.518;9.124;2023-05-28T01:47:52;11.70;99.90
31735;DHT22;18313;48.518;9.124;2023-05-28T01:50:20;11.60;99.90
31735;DHT22;18313;48.518;9.124;2023-05-28T01:52:47;11.60;99.90
31735;DHT22;18313;48.518;9.124;2023-05-28T01:55:15;11.50;99.90
31735;DHT22;18313;48.518;9.124;2023-05-28T01:57:43;11.50;99.90
31735;DHT22;18313;48.518;9.124;2023-05-28T02:00:10;11.40;99.90
31735;DHT22;18313;48.518;9.124;2023-05-28T02:02:38;11.40;99.90
31735;DHT22;18313;48.518;9.124;2023-05-28T02:05:06;11.40;99.90
31735;DHT22;18313;48.518;9.124;2023-05-28T02:07:33;11.30;99.90
31735;DHT22;18313;48.518;9.124;2023-05-28T02:10:01;11.30;99.90
31735;DHT22;18313;48.518;9.124;2023-05-28T02:12:28;11.20;99.90
31735;DHT22;18313;48.518;9.124;2023-05-28T02:14:55;11.20;99.90
31735;DHT22;18313;48.518;9.124;2023-05-28T02:17:23;11.30;99.90
31735;DHT22;18313;48.518;9.124;2023-05-28T02:19:50;11.20;99.90
31735;DHT22;18313;48.518;9.124;2023-05-28T02:22:17;11.20;99.90
31735;DHT22;18313;48.518;9.124;2023-05-28T02:24:45;11.10;99.90
31735;DHT22;18313;48.518;9.124;2023-05-28T02:27:13;11.00;99.90
31735;DHT22;18313;48.518;9.124;2023-05-28T02:29:40;11.00;99.90
31735;DHT22;18313;48.518;9.124;2023-05-28T02:32:09;11.00;99.90
31735;DHT22;18313;48.518;9.124;2023-05-28T02:34:37;10.90;99.90
31735;DHT22;18313;48.518;9.124;2023-05-28T02:37:05;10.90;99.90
31735;DHT22;18313;48.518;9.124;2023-05-28T02:39:33;10.80;99.90
31735;DHT22;18313;48.518;9.124;2023-05-28T02:42:00;10.80;99.90
31735;DHT22;18313;48.518;9.124;2023-05-28T02:44:27;10.80;99.90
31735;DHT22;18313;48.518;9.124;2023-05-28T02:46:55;10.70;99.90
31735;DHT22;18313;48.518;9.124;2023-05-28T02:49:22;10.50;99.90
31735;DHT22;18313;48.518;9.124;2023-05-28T02:51:50;10.50;99.90
31735;DHT22;18313;48.518;9.124;2023-05-28T02:54:17;10.50;99.90
31735;DHT22;18313;48.518;9.124;2023-05-28T02:56:44;10.50;99.90
31735;DHT22;18313;48.518;9.124;2023-05-28T02:59:11;10.40;99.90
31735;DHT22;18313;48.518;9.124;2023-05-28T03:01:39;10.40;99.90
31735;DHT22;18313;48.518;9.124;2023-05-28T03:04:07;10.40;99.90
31735;DHT22;18313;48.518;9.124;2023-05-28T03:06:34;10.40;99.90
31735;DHT22;18313;48.518;9.124;2023-05-28T03:09:03;10.40;99.90
31735;DHT22;18313;48.518;9.124;2023-05-28T03:11:30;10.40;99.90
31735;DHT22;18313;48.518;9.124;2023-05-28T03:13:57;10.40;99.90
31735;DHT22;18313;48.518;9.124;2023-05-28T03:16:25;10.30;99.90
31735;DHT22;18313;48.518;9.124;2023-05-28T03:18:52;10.30;99.90
31735;DHT22;18313;48.518;9.124;2023-05-28T03:21:19;10.30;99.90
31735;DHT22;18313;48.518;9.124;2023-05-28T03:23:47;10.30;99.90
31735;DHT22;18313;48.518;9.124;2023-05-28T03:26:15;10.30;99.90
31735;DHT22;18313;48.518;9.124;2023-05-28T03:28:42;10.30;99.90
31735;DHT22;18313;48.518;9.124;2023-05-28T03:31:11;10.20;99.90
31735;DHT22;18313;48.518;9.124;2023-05-28T03:33:38;10.20;99.90
31735;DHT22;18313;48.518;9.124;2023-05-28T03:36:06;10.20;99.90
31735;DHT22;18313;48.518;9.124;2023-05-28T03:38:34;10.10;99.90
31735;DHT22;18313;48.518;9.124;2023-05-28T03:41:01;10.10;99.90
31735;DHT22;18313;48.518;9.124;2023-05-28T03:43:30;10.00;99.90
31735;DHT22;18313;48.518;9.124;2023-05-28T03:45:57;10.00;99.90
31735;DHT22;18313;48.518;9.124;2023-05-28T03:48:25;10.00;99.90
31735;DHT22;18313;48.518;9.124;2023-05-28T03:50:52;10.00;99.90
31735;DHT22;18313;48.518;9.124;2023-05-28T03:53:19;10.00;99.90
31735;DHT22;18313;48.518;9.124;2023-05-28T03:55:46;10.00;99.90
31735;DHT22;18313;48.518;9.124;2023-05-28T03:58:14;10.00;99.90
31735;DHT22;18313;48.518;9.124;2023-05-28T04:00:43;9.90;99.90
31735;DHT22;18313;48.518;9.124;2023-05-28T04:03:11;9.90;99.90
31735;DHT22;18313;48.518;9.124;2023-05-28T04:05:38;9.90;99.90
31735;DHT22;18313;48.518;9.124;2023-05-28T04:08:06;9.90;99.90
31735;DHT22;18313;48.518;9.124;2023-05-28T04:10:33;9.90;99.90
31735;DHT22;18313;48.518;9.124;2023-05-28T04:13:01;10.00;99.90
31735;DHT22;18313;48.518;9.124;2023-05-28T04:15:28;10.00;99.90
31735;DHT22;18313;48.518;9.124;2023-05-28T04:17:56;10.00;99.90
31735;DHT22;18313;48.518;9.124;2023-05-28T04:20:23;10.10;99.90
31735;DHT22;18313;48.518;9.124;2023-05-28T04:22:50;10.10;99.90
31735;DHT22;18313;48.518;9.124;2023-05-28T04:25:18;10.30;99.90
31735;DHT22;18313;48.518;9.124;2023-05-28T04:27:47;10.30;99.90
31735;DHT22;18313;48.518;9.124;2023-05-28T04:30:15;10.40;99.90
31735;DHT22;18313;48.518;9.124;2023-05-28T04:32:42;10.50;99.90
31735;DHT22;18313;48.518;9.124;2023-05-28T04:35:09;10.50;99.90
31735;DHT22;18313;48.518;9.124;2023-05-28T04:37:37;10.60;99.90
31735;DHT22;18313;48.518;9.124;2023-05-28T04:40:07;10.80;99.90
31735;DHT22;18313;48.518;9.124;2023-05-28T04:42:40;10.90;99.90
31735;DHT22;18313;48.518;9.124;2023-05-28T04:45:09;10.90;99.90
31735;DHT22;18313;48.518;9.124;2023-05-28T04:47:37;11.00;99.90
31735;DHT22;18313;48.518;9.124;2023-05-28T04:50:05;11.20;99.90
31735;DHT22;18313;48.518;9.124;2023-05-28T04:52:33;11.30;99.90
31735;DHT22;18313;48.518;9.124;2023-05-28T04:55:03;11.50;99.90
31735;DHT22;18313;48.518;9.124;2023-05-28T04:57:33;11.70;99.90
31735;DHT22;18313;48.518;9.124;2023-05-28T05:00:00;11.90;99.90
31735;DHT22;18313;48.518;9.124;2023-05-28T05:02:27;12.00;99.90
31735;DHT22;18313;48.518;9.124;2023-05-28T05:04:56;12.20;99.90
31735;DHT22;18313;48.518;9.124;2023-05-28T05:07:23;12.40;99.90
31735;DHT22;18313;48.518;9.124;2023-05-28T05:09:51;12.60;99.90
31735;DHT22;18313;48.518;9.124;2023-05-28T05:12:18;12.80;99.90
31735;DHT22;18313;48.518;9.124;2023-05-28T05:14:45;12.90;99.90
31735;DHT22;18313;48.518;9.124;2023-05-28T05:17:12;13.10;99.90
31735;DHT22;18313;48.518;9.124;2023-05-28T05:19:40;13.20;99.90
31735;DHT22;18313;48.518;9.124;2023-05-28T05:22:07;13.40;99.90
31735;DHT22;18313;48.518;9.124;2023-05-28T05:24:34;13.50;99.90
31735;DHT22;18313;48.518;9.124;2023-05-28T05:27:01;13.60;99.90
31735;DHT22;18313;48.518;9.124;2023-05-28T05:29:28;13.70;99.90
31735;DHT22;18313;48.518;9.124;2023-05-28T05:31:56;13.70;99.90
31735;DHT22;18313;48.518;9.124;2023-05-28T05:34:25;13.80;99.90
31735;DHT22;18313;48.518;9.124;2023-05-28T05:36:52;13.90;99.90
31735;DHT22;18313;48.518;9.124;2023-05-28T05:39:19;14.00;99.90
31735;DHT22;18313;48.518;9.124;2023-05-28T05:41:46;14.20;99.90
31735;DHT22;18313;48.518;9.124;2023-05-28T05:44:14;14.30;99.90
31735;DHT22;18313;48.518;9.124;2023-05-28T05:46:41;14.40;99.90
31735;DHT22;18313;48.518;9.124;2023-05-28T05:49:09;14.50;99.90
31735;DHT22;18313;48.518;9.124;2023-05-28T05:51:36;14.50;99.90
31735;DHT22;18313;48.518;9.124;2023-05-28T05:54:03;14.60;99.90
31735;DHT22;18313;48.518;9.124;2023-05-28T05:56:30;14.80;99.90
31735;DHT22;18313;48.518;9.124;2023-05-28T05:58:58;14.90;99.90
31735;DHT22;18313;48.518;9.124;2023-05-28T06:01:26;15.00;99.90
31735;DHT22;18313;48.518;9.124;2023-05-28T06:03:52;15.10;99.90
31735;DHT22;18313;48.518;9.124;2023-05-28T06:06:19;15.30;99.90
31735;DHT22;18313;48.518;9.124;2023-05-28T06:08:47;15.50;99.90
31735;DHT22;18313;48.518;9.124;2023-05-28T06:11:14;15.60;99.90
31735;DHT22;18313;48.518;9.124;2023-05-28T06:13:41;15.70;99.90
31735;DHT22;18313;48.518;9.124;2023-05-28T06:16:08;15.80;99.90
31735;DHT22;18313;48.518;9.124;2023-05-28T06:18:35;15.80;99.90
31735;DHT22;18313;48.518;9.124;2023-05-28T06:21:03;15.90;99.90
31735;DHT22;18313;48.518;9.124;2023-05-28T06:23:30;15.80;99.90
31735;DHT22;18313;48.518;9.124;2023-05-28T06:25:57;15.80;99.90
31735;DHT22;18313;48.518;9.124;2023-05-28T06:28:24;15.90;99.90
31735;DHT22;18313;48.518;9.124;2023-05-28T06:30:51;16.00;99.90
31735;DHT22;18313;48.518;9.124;2023-05-28T06:33:19;16.00;99.90
31735;DHT22;18313;48.518;9.124;2023-05-28T06:35:46;16.10;99.90
31735;DHT22;18313;48.518;9.124;2023-05-28T06:38:13;16.20;99.90
31735;DHT22;18313;48.518;9.124;2023-05-28T06:40:40;16.30;99.90
31735;DHT22;18313;48.518;9.124;2023-05-28T06:43:07;16.30;99.90
31735;DHT22;18313;48.518;9.124;2023-05-28T06:45:34;16.40;99.90
31735;DHT22;18313;48.518;9.124;2023-05-28T06:48:01;16.50;99.90
31735;DHT22;18313;48.518;9.124;2023-05-28T06:50:30;16.60;99.90
31735;DHT22;18313;48.518;9.124;2023-05-28T06:52:57;16.80;99.90
31735;DHT22;18313;48.518;9.124;2023-05-28T06:55:24;16.90;99.90
31735;DHT22;18313;48.518;9.124;2023-05-28T06:57:51;17.10;99.90
31735;DHT22;18313;48.518;9.124;2023-05-28T07:00:20;17.10;99.90
31735;DHT22;18313;48.518;9.124;2023-05-28T07:02:47;17.10;99.90
31735;DHT22;18313;48.518;9.124;2023-05-28T07:05:15;17.20;99.90
31735;DHT22;18313;48.518;9.124;2023-05-28T07:07:42;17.20;99.90
31735;DHT22;18313;48.518;9.124;2023-05-28T07:10:10;17.20;99.90
31735;DHT22;18313;48.518;9.124;2023-05-28T07:12:40;17.30;99.90
31735;DHT22;18313;48.518;9.124;2023-05-28T07:15:07;17.40;99.90
31735;DHT22;18313;48.518;9.124;2023-05-28T07:17:35;17.60;99.90
31735;DHT22;18313;48.518;9.124;2023-05-28T07:20:03;17.90;99.90
31735;DHT22;18313;48.518;9.124;2023-05-28T07:22:32;18.00;99.90
31735;DHT22;18313;48.518;9.124;2023-05-28T07:24:59;18.00;99.90
31735;DHT22;18313;48.518;9.124;2023-05-28T07:27:27;18.20;99.90
31735;DHT22;18313;48.518;9.124;2023-05-28T07:29:54;18.40;99.90
31735;DHT22;18313;48.518;9.124;2023-05-28T07:32:22;18.50;99.20
31735;DHT22;18313;48.518;9.124;2023-05-28T07:34:49;18.70;99.60
31735;DHT22;18313;48.518;9.124;2023-05-28T07:37:16;18.70;99.10
31735;DHT22;18313;48.518;9.124;2023-05-28T07:39:43;19.00;98.20
31735;DHT22;18313;48.518;9.124;2023-05-28T07:42:10;19.30;98.80
31735;DHT22;18313;48.518;9.124;2023-05-28T07:44:37;19.70;97.50
31735;DHT22;18313;48.518;9.124;2023-05-28T07:47:04;19.50;97.60
31735;DHT22;18313;48.518;9.124;2023-05-28T07:49:32;19.40;96.90
31735;DHT22;18313;48.518;9.124;2023-05-28T07:51:59;19.60;97.30
31735;DHT22;18313;48.518;9.124;2023-05-28T07:54:26;19.80;96.80
31735;DHT22;18313;48.518;9.124;2023-05-28T07:56:53;20.00;97.30
31735;DHT22;18313;48.518;9.124;2023-05-28T07:59:20;20.20;95.50
31735;DHT22;18313;48.518;9.124;2023-05-28T08:01:48;20.20;95.80
31735;DHT22;18313;48.518;9.124;2023-05-28T08:04:15;20.10;96.60
31735;DHT22;18313;48.518;9.124;2023-05-28T08:06:43;20.20;96.60
31735;DHT22;18313;48.518;9.124;2023-05-28T08:09:10;20.30;95.90
31735;DHT22;18313;48.518;9.124;2023-05-28T08:11:37;20.30;97.00
31735;DHT22;18313;48.518;9.124;2023-05-28T08:14:04;20.50;97.10
31735;DHT22;18313;48.518;9.124;2023-05-28T08:16:31;20.50;96.00
31735;DHT22;18313;48.518;9.124;2023-05-28T08:18:58;20.60;95.30
31735;DHT22;18313;48.518;9.124;2023-05-28T08:21:26;20.80;96.00
31735;DHT22;18313;48.518;9.124;2023-05-28T08:23:57;21.00;95.90
31735;DHT22;18313;48.518;9.124;2023-05-28T08:26:24;21.00;95.50
31735;DHT22;18313;48.518;9.124;2023-05-28T08:28:51;21.10;95.40
31735;DHT22;18313;48.518;9.124;2023-05-28T08:31:18;21.00;95.50
31735;DHT22;18313;48.518;9.124;2023-05-28T08:33:45;21.20;95.50
31735;DHT22;18313;48.518;9.124;2023-05-28T08:36:12;21.30;95.00
31735;DHT22;18313;48.518;9.124;2023-05-28T08:38:39;21.50;95.60
31735;DHT22;18313;48.518;9.124;2023-05-28T08:41:07;21.60;95.00
31735;DHT22;18313;48.518;9.124;2023-05-28T08:43:34;22.00;94.80
31735;DHT22;18313;48.518;9.124;2023-05-28T08:46:01;22.30;94.10
31735;DHT22;18313;48.518;9.124;2023-05-28T08:48:31;22.50;93.70
31735;DHT22;18313;48.518;9.124;2023-05-28T08:51:00;22.50;92.60
31735;DHT22;18313;48.518;9.124;2023-05-28T08:53:31;22.40;93.40
31735;DHT22;18313;48.518;9.124;2023-05-28T08:55:59;22.60;92.80
31735;DHT22;18313;48.518;9.124;2023-05-28T08:58:27;22.80;92.80
31735;DHT22;18313;48.518;9.124;2023-05-28T09:00:54;23.10;92.20
31735;DHT22;18313;48.518;9.124;2023-05-28T09:03:21;23.20;92.50
31735;DHT22;18313;48.518;9.124;2023-05-28T09:05:48;23.20;92.20
31735;DHT22;18313;48.518;9.124;2023-05-28T09:08:15;23.10;92.00
31735;DHT22;18313;48.518;9.124;2023-05-28T09:10:42;23.20;92.20
31735;DHT22;18313;48.518;9.124;2023-05-28T09:13:09;23.10;91.80
31735;DHT22;18313;48.518;9.124;2023-05-28T09:15:36;23.00;92.20
31735;DHT22;18313;48.518;9.124;2023-05-28T09:18:05;23.00;91.90
31735;DHT22;18313;48.518;9.124;2023-05-28T09:20:32;23.00;92.40
31735;DHT22;18313;48.518;9.124;2023-05-28T09:23:05;23.00;92.10
31735;DHT22;18313;48.518;9.124;2023-05-28T09:25:35;22.90;92.60
31735;DHT22;18313;48.518;9.124;2023-05-28T09:28:03;23.00;92.10
31735;DHT22;18313;48.518;9.124;2023-05-28T09:30:35;23.10;92.10
31735;DHT22;18313;48.518;9.124;2023-05-28T09:33:03;23.10;91.30
31735;DHT22;18313;48.518;9.124;2023-05-28T09:35:32;23.00;91.20
31735;DHT22;18313;48.518;9.124;2023-05-28T09:38:08;22.90;91.80
31735;DHT22;18313;48.518;9.124;2023-05-28T09:40:42;23.00;91.60
31735;DHT22;18313;48.518;9.124;2023-05-28T09:43:10;23.00;92.40
31735;DHT22;18313;48.518;9.124;2023-05-28T09:45:37;23.30;91.60
31735;DHT22;18313;48.518;9.124;2023-05-28T09:48:06;23.80;92.00
31735;DHT22;18313;48.518;9.124;2023-05-28T09:50:33;24.10;90.40
31735;DHT22;18313;48.518;9.124;2023-05-28T09:53:02;24.20;90.70
31735;DHT22;18313;48.518;9.124;2023-05-28T09:55:31;24.20;90.70
31735;DHT22;18313;48.518;9.124;2023-05-28T09:58:04;24.50;90.70
31735;DHT22;18313;48.518;9.124;2023-05-28T10:00:34;24.90;89.40
31735;DHT22;18313;48.518;9.124;2023-05-28T10:03:24;25.10;87.70
31735;DHT22;18313;48.518;9.124;2023-05-28T10:06:01;25.40;87.60
31735;DHT22;18313;48.518;9.124;2023-05-28T10:08:33;25.20;87.20
31735;DHT22;18313;48.518;9.124;2023-05-28T10:11:14;25.30;86.40
31735;DHT22;18313;48.518;9.124;2023-05-28T10:13:41;25.10;87.70
31735;DHT22;18313;48.518;9.124;2023-05-28T10:16:09;25.20;87.80
31735;DHT22;18313;48.518;9.124;2023-05-28T10:18:37;25.20;86.60
31735;DHT22;18313;48.518;9.124;2023-05-28T10:21:07;24.80;84.60
31735;DHT22;18313;48.518;9.124;2023-05-28T10:23:36;24.80;87.80
31735;DHT22;18313;48.518;9.124;2023-05-28T10:26:04;25.20;89.20
31735;DHT22;18313;48.518;9.124;2023-05-28T10:28:31;25.50;87.40
31735;DHT22;18313;48.518;9.124;2023-05-28T10:33:30;25.40;85.90
31735;DHT22;18313;48.518;9.124;2023-05-28T10:35:59;25.40;87.30
31735;DHT22;18313;48.518;9.124;2023-05-28T10:38:28;25.80;86.60
31735;DHT22;18313;48.518;9.124;2023-05-28T10:41:00;25.90;85.50
31735;DHT22;18313;48.518;9.124;2023-05-28T10:46:10;26.20;84.40
31735;DHT22;18313;48.518;9.124;2023-05-28T10:48:39;26.00;85.50
31735;DHT22;18313;48.518;9.124;2023-05-28T10:51:07;25.70;83.60
31735;DHT22;18313;48.518;9.124;2023-05-28T10:53:34;25.80;84.30
31735;DHT22;18313;48.518;9.124;2023-05-28T10:56:02;25.90;82.80
31735;DHT22;18313;48.518;9.124;2023-05-28T10:58:34;26.20;84.70
31735;DHT22;18313;48.518;9.124;2023-05-28T11:01:18;26.00;83.50
31735;DHT22;18313;48.518;9.124;2023-05-28T11:03:55;25.90;81.40
31735;DHT22;18313;48.518;9.124;2023-05-28T11:06:25;25.70;83.50
31735;DHT22;18313;48.518;9.124;2023-05-28T11:08:56;26.00;80.00
31735;DHT22;18313;48.518;9.124;2023-05-28T11:11:24;26.20;82.90
31735;DHT22;18313;48.518;9.124;2023-05-28T11:13:51;26.40;81.30
31735;DHT22;18313;48.518;9.124;2023-05-28T11:16:18;26.40;81.10
31735;DHT22;18313;48.518;9.124;2023-05-28T11:19:02;26.70;78.40
31735;DHT22;18313;48.518;9.124;2023-05-28T11:21:30;26.90;80.80
31735;DHT22;18313;48.518;9.124;2023-05-28T11:24:03;27.20;81.40
31735;DHT22;18313;48.518;9.124;2023-05-28T11:26:31;27.30;80.10
31735;DHT22;18313;48.518;9.124;2023-05-28T11:28:59;27.10;76.50
31735;DHT22;18313;48.518;9.124;2023-05-28T11:31:28;26.80;80.50
31735;DHT22;18313;48.518;9.124;2023-05-28T11:33:55;27.10;80.70
31735;DHT22;18313;48.518;9.124;2023-05-28T11:36:23;27.10;79.60
31735;DHT22;18313;48.518;9.124;2023-05-28T11:39:03;27.20;80.70
31735;DHT22;18313;48.518;9.124;2023-05-28T11:41:31;27.50;82.30
31735;DHT22;18313;48.518;9.124;2023-05-28T11:43:59;27.60;77.70
31735;DHT22;18313;48.518;9.124;2023-05-28T11:46:26;27.40;75.60
31735;DHT22;18313;48.518;9.124;2023-05-28T11:48:54;27.10;76.60
31735;DHT22;18313;48.518;9.124;2023-05-28T11:51:21;27.00;75.10
31735;DHT22;18313;48.518;9.124;2023-05-28T11:53:48;27.10;77.40
31735;DHT22;18313;48.518;9.124;2023-05-28T11:56:16;27.00;78.00
31735;DHT22;18313;48.518;9.124;2023-05-28T11:58:46;27.00;75.40
31735;DHT22;18313;48.518;9.124;2023-05-28T12:01:16;26.70;76.90
31735;DHT22;18313;48.518;9.124;2023-05-28T12:03:43;26.90;76.70
31735;DHT22;18313;48.518;9.124;2023-05-28T12:06:11;26.80;72.90
31735;DHT22;18313;48.518;9.124;2023-05-28T12:08:46;26.80;74.00
31735;DHT22;18313;48.518;9.124;2023-05-28T12:11:13;26.80;72.70
31735;DHT22;18313;48.518;9.124;2023-05-28T12:13:40;26.60;74.90
31735;DHT22;18313;48.518;9.124;2023-05-28T12:16:11;26.50;73.90
31735;DHT22;18313;48.518;9.124;2023-05-28T12:18:43;26.50;74.20
31735;DHT22;18313;48.518;9.124;2023-05-28T12:21:14;26.50;75.00
31735;DHT22;18313;48.518;9.124;2023-05-28T12:23:46;26.50;74.00
31735;DHT22;18313;48.518;9.124;2023-05-28T12:26:14;26.60;73.30
31735;DHT22;18313;48.518;9.124;2023-05-28T12:28:41;26.80;73.70
31735;DHT22;18313;48.518;9.124;2023-05-28T12:31:09;26.50;72.70
31735;DHT22;18313;48.518;9.124;2023-05-28T12:33:36;26.50;73.80
31735;DHT22;18313;48.518;9.124;2023-05-28T12:36:03;26.80;70.90
31735;DHT22;18313;48.518;9.124;2023-05-28T12:38:30;26.70;70.40
31735;DHT22;18313;48.518;9.124;2023-05-28T12:40:57;26.70;72.20
31735;DHT22;18313;48.518;9.124;2023-05-28T12:43:26;26.40;69.60
31735;DHT22;18313;48.518;9.124;2023-05-28T12:45:53;26.10;69.60
31735;DHT22;18313;48.518;9.124;2023-05-28T12:48:20;25.80;69.60
31735;DHT22;18313;48.518;9.124;2023-05-28T12:50:47;25.60;71.40
31735;DHT22;18313;48.518;9.124;2023-05-28T12:53:14;25.70;71.10
31735;DHT22;18313;48.518;9.124;2023-05-28T12:55:41;26.00;72.90
31735;DHT22;18313;48.518;9.124;2023-05-28T12:58:09;26.00;71.40
31735;DHT22;18313;48.518;9.124;2023-05-28T13:00:36;26.40;74.20
31735;DHT22;18313;48.518;9.124;2023-05-28T13:03:03;26.70;69.60
31735;DHT22;18313;48.518;9.124;2023-05-28T13:05:30;26.80;70.20
31735;DHT22;18313;48.518;9.124;2023-05-28T13:08:01;26.80;69.80
31735;DHT22;18313;48.518;9.124;2023-05-28T13:10:29;26.60;72.50
31735;DHT22;18313;48.518;9.124;2023-05-28T13:12:56;26.80;70.10
31735;DHT22;18313;48.518;9.124;2023-05-28T13:15:27;26.90;68.00
31735;DHT22;18313;48.518;9.124;2023-05-28T13:17:54;26.80;69.40
31735;DHT22;18313;48.518;9.124;2023-05-28T13:20:21;26.90;68.70
31735;DHT22;18313;48.518;9.124;2023-05-28T13:22:48;26.90;68.00
31735;DHT22;18313;48.518;9.124;2023-05-28T13:25:15;26.80;70.50
31735;DHT22;18313;48.518;9.124;2023-05-28T13:27:42;26.80;66.10
31735;DHT22;18313;48.518;9.124;2023-05-28T13:30:10;26.90;68.80
31735;DHT22;18313;48.518;9.124;2023-05-28T13:32:37;27.20;67.40
31735;DHT22;18313;48.518;9.124;2023-05-28T13:35:04;27.50;67.00
31735;DHT22;18313;48.518;9.124;2023-05-28T13:37:31;27.50;64.60
31735;DHT22;18313;48.518;9.124;2023-05-28T13:40:00;27.40;68.30
31735;DHT22;18313;48.518;9.124;2023-05-28T13:42:28;27.50;68.80
31735;DHT22;18313;48.518;9.124;2023-05-28T13:44:55;27.30;68.00
31735;DHT22;18313;48.518;9.124;2023-05-28T13:47:23;27.60;71.00
31735;DHT22;18313;48.518;9.124;2023-05-28T13:49:50;27.80;67.40
31735;DHT22;18313;48.518;9.124;2023-05-28T13:52:17;28.20;70.10
31735;DHT22;18313;48.518;9.124;2023-05-28T13:54:44;28.30;69.90
31735;DHT22;18313;48.518;9.124;2023-05-28T13:57:11;28.50;68.20
31735;DHT22;18313;48.518;9.124;2023-05-28T13:59:38;28.80;67.10
31735;DHT22;18313;48.518;9.124;2023-05-28T14:02:06;28.80;66.40
31735;DHT22;18313;48.518;9.124;2023-05-28T14:04:33;28.80;67.30
31735;DHT22;18313;48.518;9.124;2023-05-28T14:07:00;29.10;66.60
31735;DHT22;18313;48.518;9.124;2023-05-28T14:09:28;28.50;69.60
31735;DHT22;18313;48.518;9.124;2023-05-28T14:11:55;28.10;69.70
31735;DHT22;18313;48.518;9.124;2023-05-28T14:14:25;27.50;71.60
31735;DHT22;18313;48.518;9.124;2023-05-28T14:16:52;27.60;69.50
31735;DHT22;18313;48.518;9.124;2023-05-28T14:19:20;28.00;71.00
31735;DHT22;18313;48.518;9.124;2023-05-28T14:21:48;28.30;67.80
31735;DHT22;18313;48.518;9.124;2023-05-28T14:24:15;28.60;66.80
31735;DHT22;18313;48.518;9.124;2023-05-28T14:26:42;28.50;65.50
31735;DHT22;18313;48.518;9.124;2023-05-28T14:29:09;28.40;66.70
31735;DHT22;18313;48.518;9.124;2023-05-28T14:31:36;28.40;67.40
31735;DHT22;18313;48.518;9.124;2023-05-28T14:34:03;28.60;67.10
31735;DHT22;18313;48.518;9.124;2023-05-28T14:36:30;28.80;67.00
31735;DHT22;18313;48.518;9.124;2023-05-28T14:38:58;28.80;66.50
31735;DHT22;18313;48.518;9.124;2023-05-28T14:41:25;28.60;65.50
31735;DHT22;18313;48.518;9.124;2023-05-28T14:43:52;28.40;65.60
31735;DHT22;18313;48.518;9.124;2023-05-28T14:46:20;28.30;68.00
31735;DHT22;18313;48.518;9.124;2023-05-28T14:48:47;28.10;66.50
31735;DHT22;18313;48.518;9.124;2023-05-28T14:51:14;28.20;67.80
31735;DHT22;18313;48.518;9.124;2023-05-28T14:53:41;28.40;66.70
31735;DHT22;18313;48.518;9.124;2023-05-28T14:56:08;28.40;66.00
31735;DHT22;18313;48.518;9.124;2023-05-28T14:58:35;28.50;66.20
31735;DHT22;18313;48.518;9.124;2023-05-28T15:01:02;28.40;65.80
31735;DHT22;18313;48.518;9.124;2023-05-28T15:03:30;28.10;65.40
31735;DHT22;18313;48.518;9.124;2023-05-28T15:05:58;27.80;64.40
31735;DHT22;18313;48.518;9.124;2023-05-28T15:08:25;27.60;65.60
31735;DHT22;18313;48.518;9.124;2023-05-28T15:10:52;27.90;66.60
31735;DHT22;18313;48.518;9.124;2023-05-28T15:13:19;27.90;65.30
31735;DHT22;18313;48.518;9.124;2023-05-28T15:15:46;27.70;64.00
31735;DHT22;18313;48.518;9.124;2023-05-28T15:18:14;27.80;64.40
31735;DHT22;18313;48.518;9.124;2023-05-28T15:20:41;27.80;62.80
31735;DHT22;18313;48.518;9.124;2023-05-28T15:23:09;27.80;61.10
31735;DHT22;18313;48.518;9.124;2023-05-28T15:25:37;27.60;62.30
31735;DHT22;18313;48.518;9.124;2023-05-28T15:28:04;27.30;61.60
31735;DHT22;18313;48.518;9.124;2023-05-28T15:30:32;26.80;60.20
31735;DHT22;18313;48.518;9.124;2023-05-28T15:33:00;26.60;61.70
31735;DHT22;18313;48.518;9.124;2023-05-28T15:35:29;26.70;62.90
31735;DHT22;18313;48.518;9.124;2023-05-28T15:37:56;27.00;64.50
31735;DHT22;18313;48.518;9.124;2023-05-28T15:40:23;27.20;63.20